Time;durP1;ratioP1;P1;durP2;ratioP2;P2;SDS_P1;SDS_P2;PMS_P1;PMS_P2;Temp;Humidity;BMP_temperature;BMP_pressure;BME280_temperature;BME280_humidity;BME280_pressure;Samples;Min_cycle;Max_cycle;Signal;HPM_P1;HPM_P2
2023/11/05 00:00:48;;;;;;;3.53;3.33;;;11.90;99.90;;;;;;4952291;28;20220;-76
2023/11/05 00:03:14;;;;;;;2.93;2.73;;;12.00;99.90;;;;;;4952827;28;20596;-79
2023/11/05 00:05:40;;;;;;;3.10;2.90;;;12.10;99.90;;;;;;4952974;28;20417;-78
2023/11/05 00:08:06;;;;;;;4.40;3.00;;;12.20;99.90;;;;;;4952702;28;20499;-77
2023/11/05 00:10:31;;;;;;;3.33;2.60;;;12.20;99.90;;;;;;4951988;28;20777;-77
2023/11/05 00:12:57;;;;;;;3.33;3.00;;;12.20;99.90;;;;;;4953705;29;20429;-75
2023/11/05 00:15:23;;;;;;;3.60;3.30;;;12.20;99.90;;;;;;4951644;29;20238;-70
2023/11/05 00:17:48;;;;;;;3.13;2.83;;;12.30;99.90;;;;;;4950682;29;20240;-75
2023/11/05 00:20:15;;;;;;;2.97;2.60;;;12.30;99.90;;;;;;4953301;28;20181;-76
2023/11/05 00:22:40;;;;;;;2.90;2.80;;;12.10;99.90;;;;;;4956551;28;20183;-78
2023/11/05 00:25:08;;;;;;;3.27;3.07;;;12.10;99.90;;;;;;4956481;28;20456;-77
2023/11/05 00:27:33;;;;;;;4.20;2.97;;;12.00;99.90;;;;;;4956933;28;20188;-79
2023/11/05 00:29:59;;;;;;;2.77;2.67;;;12.10;99.90;;;;;;4956412;29;20467;-78
2023/11/05 00:32:25;;;;;;;3.57;3.10;;;12.00;99.90;;;;;;4955959;29;20193;-77
2023/11/05 00:34:50;;;;;;;6.10;2.90;;;12.10;99.90;;;;;;4955368;29;20236;-77
2023/11/05 00:37:16;;;;;;;3.20;3.00;;;12.10;99.90;;;;;;4957810;28;20178;-80
2023/11/05 00:39:43;;;;;;;3.07;2.80;;;12.10;99.90;;;;;;4956155;29;20655;-77
2023/11/05 00:42:08;;;;;;;3.77;2.70;;;12.10;99.90;;;;;;4956740;29;20536;-76
2023/11/05 00:44:34;;;;;;;3.40;2.70;;;12.10;99.90;;;;;;4956871;29;20413;-75
2023/11/05 00:47:00;;;;;;;4.77;3.10;;;12.10;99.90;;;;;;4957675;28;20621;-76
2023/11/05 00:49:25;;;;;;;5.53;3.40;;;12.10;99.90;;;;;;4955623;29;20205;-79
2023/11/05 00:51:51;;;;;;;4.97;3.07;;;12.10;99.90;;;;;;4957809;29;20181;-77
2023/11/05 00:54:17;;;;;;;3.07;2.87;;;12.10;99.90;;;;;;4957512;29;20181;-78
2023/11/05 00:56:43;;;;;;;4.20;3.03;;;12.10;99.90;;;;;;4956863;29;20178;-77
2023/11/05 00:59:08;;;;;;;3.10;2.90;;;12.10;99.90;;;;;;4955140;29;20193;-78
2023/11/05 01:01:34;;;;;;;4.93;3.00;;;12.00;99.90;;;;;;4956217;29;20196;-77
2023/11/05 01:04:00;;;;;;;3.57;2.87;;;12.10;99.90;;;;;;4956732;28;20193;-81
2023/11/05 01:06:26;;;;;;;3.43;3.13;;;12.10;99.90;;;;;;4956590;28;20186;-77
2023/11/05 01:08:52;;;;;;;3.23;2.90;;;12.10;99.90;;;;;;4955464;28;20457;-75
2023/11/05 01:11:17;;;;;;;3.43;3.10;;;12.00;99.90;;;;;;4956444;29;20181;-78
2023/11/05 01:13:43;;;;;;;3.33;3.13;;;12.00;99.90;;;;;;4956081;29;20190;-76
2023/11/05 01:16:09;;;;;;;5.63;3.30;;;12.30;99.90;;;;;;4956920;29;20224;-77
2023/11/05 01:18:35;;;;;;;3.20;3.00;;;12.00;99.90;;;;;;4955416;28;20282;-78
2023/11/05 01:21:01;;;;;;;4.00;3.03;;;12.00;99.90;;;;;;4956658;28;20985;-77
2023/11/05 01:23:26;;;;;;;3.77;3.50;;;12.10;99.90;;;;;;4955949;28;20617;-76
2023/11/05 01:25:52;;;;;;;3.17;2.87;;;12.00;99.90;;;;;;4956927;29;20254;-76
2023/11/05 01:28:18;;;;;;;4.07;3.03;;;11.80;99.90;;;;;;4955795;28;20177;-77
2023/11/05 01:30:43;;;;;;;3.50;3.20;;;11.90;99.90;;;;;;4955785;28;20287;-78
2023/11/05 01:33:09;;;;;;;4.57;3.80;;;11.90;99.90;;;;;;4955995;28;20199;-76
2023/11/05 01:35:35;;;;;;;3.87;3.50;;;11.80;99.90;;;;;;4955885;29;20177;-76
2023/11/05 01:38:00;;;;;;;4.10;3.80;;;11.70;99.90;;;;;;4955679;29;20735;-76
2023/11/05 01:40:26;;;;;;;4.50;4.10;;;11.80;99.90;;;;;;4956091;29;20695;-62
2023/11/05 01:42:57;;;;;;;5.63;4.30;;;11.90;99.90;;;;;;4956883;28;20224;-75
2023/11/05 01:45:23;;;;;;;5.17;3.40;;;11.90;99.90;;;;;;4956801;29;20179;-77
2023/11/05 01:47:50;;;;;;;5.67;3.80;;;12.00;99.90;;;;;;4954881;28;20425;-75
2023/11/05 01:50:16;;;;;;;3.67;3.47;;;11.90;99.90;;;;;;4955688;29;20461;-76
2023/11/05 01:52:45;;;;;;;4.30;3.77;;;11.90;99.90;;;;;;4955833;28;20411;-77
2023/11/05 01:55:11;;;;;;;4.40;4.00;;;12.00;99.90;;;;;;4956249;28;20431;-77
2023/11/05 01:57:37;;;;;;;3.60;3.40;;;12.00;99.90;;;;;;4955636;28;20471;-77
2023/11/05 02:00:05;;;;;;;6.17;4.27;;;11.80;99.90;;;;;;4955177;29;20457;-77
2023/11/05 02:02:31;;;;;;;4.10;3.63;;;11.50;99.90;;;;;;4955443;28;20430;-71
2023/11/05 02:04:58;;;;;;;4.63;3.60;;;11.60;99.90;;;;;;4937025;29;20403;-78
2023/11/05 02:07:24;;;;;;;4.57;4.17;;;11.70;99.90;;;;;;4942741;29;20774;-79
2023/11/05 02:09:49;;;;;;;5.97;4.13;;;11.80;99.90;;;;;;4954331;28;20471;-76
2023/11/05 02:12:15;;;;;;;4.03;3.60;;;11.60;99.90;;;;;;4955433;29;20624;-78
2023/11/05 02:14:49;;;;;;;4.10;3.83;;;11.70;99.90;;;;;;4954892;29;20247;-78
2023/11/05 02:17:14;;;;;;;3.70;3.50;;;11.80;99.90;;;;;;4955667;28;20580;-79
2023/11/05 02:19:40;;;;;;;4.30;3.50;;;11.80;99.90;;;;;;4954245;29;20441;-78
2023/11/05 02:22:14;;;;;;;4.00;3.70;;;11.80;99.90;;;;;;4955743;28;20295;-77
2023/11/05 02:24:45;;;;;;;9.87;3.97;;;11.70;99.90;;;;;;4954995;28;20159;-76
2023/11/05 02:27:12;;;;;;;5.53;3.60;;;11.60;99.90;;;;;;4956003;28;20414;-79
2023/11/05 02:29:38;;;;;;;3.33;3.23;;;11.60;99.90;;;;;;4953999;28;20544;-78
2023/11/05 02:32:04;;;;;;;8.13;3.50;;;11.60;99.90;;;;;;4955641;28;20545;-77
2023/11/05 02:34:31;;;;;;;4.10;3.80;;;11.70;99.90;;;;;;4955126;28;20412;-70
2023/11/05 02:36:57;;;;;;;3.73;3.47;;;11.80;99.90;;;;;;4955348;28;20480;-78
2023/11/05 02:39:23;;;;;;;7.27;4.23;;;11.80;99.90;;;;;;4954481;28;20434;-79
2023/11/05 02:41:49;;;;;;;4.77;3.97;;;11.60;99.90;;;;;;4954842;29;20420;-78
2023/11/05 02:44:15;;;;;;;6.50;4.10;;;11.80;99.90;;;;;;4954086;28;20272;-78
2023/11/05 02:46:41;;;;;;;5.13;4.17;;;11.70;99.90;;;;;;4953378;29;20416;-77
2023/11/05 02:49:12;;;;;;;4.40;4.00;;;11.70;99.90;;;;;;4954431;28;20228;-78
2023/11/05 02:51:38;;;;;;;4.43;3.47;;;11.60;99.90;;;;;;4953184;29;20434;-78
2023/11/05 02:54:05;;;;;;;3.60;3.40;;;11.60;99.90;;;;;;4955330;28;20464;-77
2023/11/05 02:56:31;;;;;;;4.00;3.70;;;11.60;99.90;;;;;;4955219;28;20480;-69
2023/11/05 02:58:56;;;;;;;4.40;3.63;;;11.80;99.90;;;;;;4954540;28;20448;-77
2023/11/05 03:01:24;;;;;;;3.60;3.50;;;11.70;99.90;;;;;;4955422;29;20418;-74
2023/11/05 03:03:51;;;;;;;3.70;3.50;;;11.60;99.90;;;;;;4954438;28;20191;-75
2023/11/05 03:06:17;;;;;;;5.13;3.40;;;11.50;99.90;;;;;;4954087;28;20435;-75
2023/11/05 03:08:43;;;;;;;3.50;3.30;;;11.60;99.90;;;;;;4952980;29;20901;-77
2023/11/05 03:11:09;;;;;;;3.40;3.10;;;11.60;99.90;;;;;;4954726;28;20429;-75
2023/11/05 03:13:35;;;;;;;4.07;3.40;;;11.60;99.90;;;;;;4954200;28;20416;-76
2023/11/05 03:16:00;;;;;;;4.03;3.40;;;11.70;99.90;;;;;;4953711;28;20990;-76
2023/11/05 03:18:27;;;;;;;3.77;3.50;;;11.70;99.90;;;;;;4954939;28;20181;-77
2023/11/05 03:20:53;;;;;;;3.57;3.30;;;11.70;99.90;;;;;;4954308;28;20183;-77
2023/11/05 03:23:18;;;;;;;4.20;3.60;;;11.70;99.90;;;;;;4954699;29;20798;-76
2023/11/05 03:25:44;;;;;;;3.90;3.60;;;11.70;99.90;;;;;;4953139;29;20437;-74
2023/11/05 03:28:10;;;;;;;3.77;3.47;;;11.60;99.90;;;;;;4954713;29;20468;-77
2023/11/05 03:30:36;;;;;;;3.90;3.60;;;11.60;99.90;;;;;;4953799;29;20283;-76
2023/11/05 03:33:04;;;;;;;3.47;3.27;;;11.70;99.90;;;;;;4954848;28;20324;-74
2023/11/05 03:35:30;;;;;;;3.93;3.50;;;11.70;99.90;;;;;;4953358;28;20182;-76
2023/11/05 03:37:56;;;;;;;4.33;4.03;;;11.70;99.90;;;;;;4953286;28;20440;-76
2023/11/05 03:40:22;;;;;;;3.70;3.50;;;11.80;99.90;;;;;;4954473;28;20414;-77
2023/11/05 03:42:48;;;;;;;3.30;3.20;;;11.90;99.90;;;;;;4952864;29;20446;-77
2023/11/05 03:45:13;;;;;;;3.87;3.57;;;11.90;99.90;;;;;;4953123;28;20500;-76
2023/11/05 03:47:40;;;;;;;3.37;3.27;;;11.70;99.90;;;;;;4953907;29;20206;-77
2023/11/05 03:50:06;;;;;;;3.30;3.20;;;11.70;99.90;;;;;;4954398;29;20243;-75
2023/11/05 03:52:32;;;;;;;3.70;3.50;;;11.70;99.90;;;;;;4954403;28;20425;-75
2023/11/05 03:54:58;;;;;;;3.50;3.40;;;11.70;99.90;;;;;;4954222;28;20402;-75
2023/11/05 03:57:24;;;;;;;4.13;3.83;;;11.60;99.90;;;;;;4960634;28;20425;-78
2023/11/05 03:59:50;;;;;;;3.40;3.30;;;11.60;99.90;;;;;;4959950;28;20267;-78
2023/11/05 04:02:15;;;;;;;3.37;3.20;;;11.70;99.90;;;;;;4959641;29;20180;-78
2023/11/05 04:04:46;;;;;;;3.40;3.30;;;11.70;99.90;;;;;;4959457;28;20229;-77
2023/11/05 04:07:11;;;;;;;3.40;3.20;;;11.90;99.90;;;;;;4955888;29;20797;-77
2023/11/05 04:09:37;;;;;;;3.57;3.47;;;11.80;99.90;;;;;;4940904;29;20461;-74
2023/11/05 04:12:03;;;;;;;3.50;3.23;;;11.90;99.90;;;;;;4949923;29;20186;-77
2023/11/05 04:14:29;;;;;;;3.30;3.20;;;11.80;99.90;;;;;;4959390;29;20243;-75
2023/11/05 04:16:55;;;;;;;3.50;3.27;;;11.70;99.90;;;;;;4959190;28;20922;-74
2023/11/05 04:19:21;;;;;;;4.50;3.67;;;11.80;99.90;;;;;;4960272;29;20499;-74
2023/11/05 04:21:46;;;;;;;3.00;2.90;;;11.70;99.90;;;;;;4959189;28;20204;-75
2023/11/05 04:24:13;;;;;;;3.20;3.10;;;11.70;99.90;;;;;;4960777;28;20209;-76
2023/11/05 04:26:38;;;;;;;3.27;3.17;;;11.70;99.90;;;;;;4959891;28;20633;-75
2023/11/05 04:29:04;;;;;;;3.03;2.93;;;11.60;99.90;;;;;;4960819;29;20490;-76
2023/11/05 04:31:30;;;;;;;3.10;3.00;;;11.70;99.90;;;;;;4959143;29;20188;-77
2023/11/05 04:33:55;;;;;;;3.50;3.30;;;11.70;99.90;;;;;;4959627;28;20180;-76
2023/11/05 04:36:21;;;;;;;5.00;2.90;;;11.70;99.90;;;;;;4960134;29;20187;-76
2023/11/05 04:38:47;;;;;;;2.97;2.87;;;11.70;99.90;;;;;;4959434;28;20175;-81
2023/11/05 04:41:19;;;;;;;2.93;2.83;;;11.80;99.90;;;;;;4959566;29;20189;-81
2023/11/05 04:43:46;;;;;;;3.17;2.97;;;11.90;99.90;;;;;;4959410;28;20157;-79
2023/11/05 04:46:12;;;;;;;3.00;2.90;;;12.00;99.90;;;;;;4960443;28;20427;-81
2023/11/05 04:48:38;;;;;;;3.70;3.40;;;12.00;99.90;;;;;;4959845;28;20588;-70
2023/11/05 04:51:08;;;;;;;3.53;3.10;;;12.00;99.90;;;;;;4959311;29;20181;-76
2023/11/05 04:53:34;;;;;;;2.90;2.90;;;12.00;99.90;;;;;;4959367;28;20192;-80
2023/11/05 04:56:00;;;;;;;3.43;3.23;;;11.90;99.90;;;;;;4959782;28;20815;-80
2023/11/05 04:58:26;;;;;;;3.40;3.30;;;12.00;99.90;;;;;;4960340;29;20421;-80
2023/11/05 05:00:52;;;;;;;3.30;3.20;;;12.00;99.90;;;;;;4959354;28;20181;-68
2023/11/05 05:03:18;;;;;;;3.30;3.20;;;12.00;99.90;;;;;;4959697;28;20433;-77
2023/11/05 05:05:44;;;;;;;3.27;3.10;;;12.00;99.90;;;;;;4959714;28;20413;-80
2023/11/05 05:08:10;;;;;;;3.10;3.00;;;12.00;99.90;;;;;;4956235;28;20420;-78
2023/11/05 05:10:36;;;;;;;3.40;3.30;;;12.00;99.90;;;;;;4956974;28;20206;-78
2023/11/05 05:13:01;;;;;;;3.40;3.30;;;12.00;99.90;;;;;;4955503;28;20433;-79
2023/11/05 05:15:27;;;;;;;3.00;3.00;;;12.10;99.90;;;;;;4956932;28;20264;-81
2023/11/05 05:17:53;;;;;;;3.10;3.03;;;12.10;99.90;;;;;;4956626;28;20705;-80
2023/11/05 05:20:19;;;;;;;3.40;3.30;;;12.10;99.90;;;;;;4957064;29;20402;-80
2023/11/05 05:22:45;;;;;;;3.10;3.00;;;12.00;99.90;;;;;;4955328;29;20213;-81
2023/11/05 05:25:10;;;;;;;3.67;3.37;;;12.10;99.90;;;;;;4956440;28;20190;-80
2023/11/05 05:27:36;;;;;;;3.80;3.50;;;12.00;99.90;;;;;;4955944;29;20600;-80
2023/11/05 05:30:03;;;;;;;3.50;3.40;;;11.90;99.90;;;;;;4956288;28;20197;-80
2023/11/05 05:32:29;;;;;;;3.63;3.43;;;11.90;99.90;;;;;;4954360;29;20298;-78
2023/11/05 05:34:54;;;;;;;3.13;3.10;;;12.00;99.90;;;;;;4957015;29;20520;-81
2023/11/05 05:37:20;;;;;;;3.50;3.40;;;12.00;99.90;;;;;;4957489;28;20181;-81
2023/11/05 05:39:48;;;;;;;3.40;3.30;;;12.10;99.90;;;;;;4956384;29;20543;-79
2023/11/05 05:42:14;;;;;;;3.50;3.40;;;12.10;99.90;;;;;;4955711;28;20644;-79
2023/11/05 05:44:40;;;;;;;3.33;3.23;;;12.10;99.90;;;;;;4956772;29;20409;-79
2023/11/05 05:47:06;;;;;;;3.63;3.10;;;12.00;99.90;;;;;;4956391;28;20747;-79
2023/11/05 05:49:31;;;;;;;3.10;3.10;;;12.00;99.90;;;;;;4956593;28;20470;-78
2023/11/05 05:51:58;;;;;;;4.47;4.17;;;11.90;99.90;;;;;;4954850;29;20183;-81
2023/11/05 05:54:24;;;;;;;4.40;4.20;;;12.00;99.90;;;;;;4954706;28;20184;-80
2023/11/05 05:56:50;;;;;;;4.07;3.87;;;12.00;99.90;;;;;;4955579;29;20414;-79
2023/11/05 05:59:16;;;;;;;4.33;4.03;;;12.10;99.90;;;;;;4956164;28;20222;-80
2023/11/05 06:01:42;;;;;;;3.30;3.20;;;12.10;99.90;;;;;;4956293;29;20410;-62
2023/11/05 06:04:08;;;;;;;3.70;3.60;;;12.00;99.90;;;;;;4955660;29;20594;-81
2023/11/05 06:06:34;;;;;;;3.30;3.20;;;12.10;99.90;;;;;;4956189;29;20417;-81
2023/11/05 06:09:00;;;;;;;3.60;3.30;;;12.00;99.90;;;;;;4955671;29;20217;-80
2023/11/05 06:11:25;;;;;;;3.47;3.37;;;12.10;99.90;;;;;;4955795;29;20426;-80
2023/11/05 06:13:51;;;;;;;3.80;3.60;;;12.10;99.90;;;;;;4954400;29;20282;-80
2023/11/05 06:16:17;;;;;;;4.37;4.17;;;12.10;99.90;;;;;;4956249;29;20646;-79
2023/11/05 06:18:43;;;;;;;4.37;4.20;;;12.20;99.90;;;;;;4955521;28;20638;-63
2023/11/05 06:21:09;;;;;;;4.23;4.03;;;12.30;99.90;;;;;;4955399;29;20484;-80
2023/11/05 06:23:34;;;;;;;4.37;4.17;;;12.10;99.90;;;;;;4954801;29;20432;-78
2023/11/05 06:26:00;;;;;;;5.10;4.90;;;12.20;99.90;;;;;;4955306;28;20183;-80
2023/11/05 06:28:26;;;;;;;4.40;4.20;;;12.10;99.90;;;;;;4955920;29;20256;-79
2023/11/05 06:30:51;;;;;;;4.40;4.30;;;12.10;99.90;;;;;;4954820;29;20206;-80
2023/11/05 06:33:17;;;;;;;3.93;3.83;;;12.10;99.90;;;;;;4954716;28;20527;-80
2023/11/05 06:35:43;;;;;;;4.27;4.17;;;12.10;99.90;;;;;;4954980;28;20197;-78
2023/11/05 06:38:09;;;;;;;3.60;3.50;;;12.10;99.90;;;;;;4955655;29;20195;-80
2023/11/05 06:40:35;;;;;;;4.30;4.20;;;12.00;99.90;;;;;;4955397;28;20407;-81
2023/11/05 06:43:01;;;;;;;4.57;4.37;;;12.10;99.90;;;;;;4953994;29;20667;-80
2023/11/05 06:45:26;;;;;;;4.10;3.90;;;12.10;99.90;;;;;;4955223;29;20184;-80
2023/11/05 06:47:52;;;;;;;6.17;5.80;;;12.10;99.90;;;;;;4953435;29;20182;-80
2023/11/05 06:50:18;;;;;;;12.53;8.80;;;12.20;99.90;;;;;;4955059;29;20213;-78
2023/11/05 06:52:44;;;;;;;4.03;3.90;;;12.20;99.90;;;;;;4954061;28;20177;-73
2023/11/05 06:55:09;;;;;;;4.13;4.03;;;12.20;99.90;;;;;;4954399;29;20179;-68
2023/11/05 06:57:35;;;;;;;3.87;3.77;;;12.20;99.90;;;;;;4955282;28;20187;-67
2023/11/05 07:00:05;;;;;;;3.80;3.70;;;12.20;99.90;;;;;;4954590;28;20234;-67
2023/11/05 07:02:34;;;;;;;4.20;3.90;;;12.30;99.90;;;;;;4955510;28;20178;-68
2023/11/05 07:05:04;;;;;;;4.20;4.00;;;12.30;99.90;;;;;;4953542;28;20506;-68
2023/11/05 07:07:31;;;;;;;4.10;4.00;;;12.30;99.90;;;;;;4953082;28;20427;-67
2023/11/05 07:09:57;;;;;;;4.30;4.10;;;12.20;99.90;;;;;;4954114;28;20462;-67
2023/11/05 07:12:23;;;;;;;4.10;3.93;;;12.30;99.90;;;;;;4954649;28;20486;-67
2023/11/05 07:14:49;;;;;;;4.73;4.53;;;12.30;99.90;;;;;;4954376;29;20470;-67
2023/11/05 07:17:14;;;;;;;4.93;4.67;;;12.30;99.90;;;;;;4953919;29;20237;-67
2023/11/05 07:19:40;;;;;;;4.20;4.00;;;12.30;99.90;;;;;;4954792;29;20512;-68
2023/11/05 07:22:06;;;;;;;3.90;3.80;;;12.30;99.90;;;;;;4953766;29;20694;-67
2023/11/05 07:24:31;;;;;;;7.90;7.20;;;12.30;99.90;;;;;;4954867;29;20653;-67
2023/11/05 07:26:57;;;;;;;5.97;5.57;;;12.30;99.90;;;;;;4952887;29;20195;-67
2023/11/05 07:29:23;;;;;;;4.70;4.50;;;12.30;99.90;;;;;;4954430;28;20217;-68
2023/11/05 07:31:49;;;;;;;4.20;4.00;;;12.40;99.90;;;;;;4953745;28;20773;-67
2023/11/05 07:34:15;;;;;;;3.73;3.50;;;12.40;99.90;;;;;;4954630;28;20427;-67
2023/11/05 07:36:41;;;;;;;3.50;3.40;;;12.40;99.90;;;;;;4953107;28;20439;-67
2023/11/05 07:39:09;;;;;;;2.80;2.80;;;12.40;99.90;;;;;;4953441;28;20744;-67
2023/11/05 07:41:35;;;;;;;3.10;3.10;;;12.40;99.90;;;;;;4954461;29;20253;-67
2023/11/05 07:44:01;;;;;;;3.10;3.00;;;12.50;99.90;;;;;;4937184;28;20419;-67
2023/11/05 07:46:27;;;;;;;2.83;2.83;;;12.50;99.90;;;;;;4950985;29;20443;-67
2023/11/05 07:48:53;;;;;;;3.20;2.90;;;12.50;99.90;;;;;;4952715;29;20188;-67
2023/11/05 07:51:22;;;;;;;3.53;3.43;;;12.50;99.90;;;;;;4954700;29;20215;-64
2023/11/05 07:53:49;;;;;;;12.00;10.90;;;12.70;99.90;;;;;;4954529;28;20179;-65
2023/11/05 07:56:16;;;;;;;7.10;6.50;;;13.00;99.90;;;;;;4953285;28;20428;-64
2023/11/05 07:58:41;;;;;;;4.60;4.30;;;13.30;99.90;;;;;;4954463;29;20511;-64
2023/11/05 08:01:07;;;;;;;3.60;3.50;;;13.60;99.90;;;;;;4953844;28;20516;-65
2023/11/05 08:03:33;;;;;;;3.73;3.40;;;13.90;99.90;;;;;;4954552;28;20832;-64
2023/11/05 08:05:59;;;;;;;3.20;3.10;;;14.00;99.90;;;;;;4952691;28;20645;-64
2023/11/05 08:08:24;;;;;;;3.20;3.10;;;14.20;99.90;;;;;;4954409;28;20581;-64
2023/11/05 08:10:50;;;;;;;2.90;2.90;;;14.40;99.90;;;;;;4953682;29;20204;-63
2023/11/05 08:13:16;;;;;;;3.77;3.57;;;14.60;99.90;;;;;;4954558;28;20181;-65
2023/11/05 08:15:43;;;;;;;2.80;2.70;;;14.80;99.90;;;;;;4952853;29;20234;-64
2023/11/05 08:18:09;;;;;;;3.20;3.10;;;14.90;99.90;;;;;;4953299;28;20199;-65
2023/11/05 08:20:35;;;;;;;3.03;2.90;;;15.00;99.90;;;;;;4954177;28;20418;-64
2023/11/05 08:23:01;;;;;;;3.10;3.00;;;14.90;99.90;;;;;;4953209;29;20435;-65
2023/11/05 08:25:26;;;;;;;3.33;3.20;;;15.00;99.90;;;;;;4953146;28;20525;-64
2023/11/05 08:27:54;;;;;;;2.70;2.60;;;15.00;99.90;;;;;;4952026;28;20183;-64
2023/11/05 08:30:23;;;;;;;3.43;3.30;;;15.10;99.90;;;;;;4950142;29;20565;-64
2023/11/05 08:32:50;;;;;;;2.70;2.70;;;15.10;99.90;;;;;;4954240;28;20412;-66
2023/11/05 08:35:18;;;;;;;2.30;2.30;;;15.10;99.90;;;;;;4952801;28;20462;-65
2023/11/05 08:37:45;;;;;;;2.30;2.30;;;15.20;99.90;;;;;;4953463;29;20949;-65
2023/11/05 08:40:13;;;;;;;2.70;2.60;;;15.30;99.90;;;;;;4952887;28;20837;-65
2023/11/05 08:42:39;;;;;;;2.30;2.23;;;15.30;99.90;;;;;;4956286;28;20967;-66
2023/11/05 08:45:06;;;;;;;2.60;2.50;;;15.30;99.90;;;;;;4955244;29;20431;-63
2023/11/05 08:47:32;;;;;;;2.70;2.70;;;15.30;99.90;;;;;;4956362;28;20434;-65
2023/11/05 08:49:59;;;;;;;2.67;2.60;;;15.30;99.90;;;;;;4956628;28;20463;-65
2023/11/05 08:52:25;;;;;;;3.20;3.03;;;15.50;99.90;;;;;;4956813;28;20433;-65
2023/11/05 08:54:51;;;;;;;3.70;3.60;;;15.50;99.90;;;;;;4956815;28;20425;-64
2023/11/05 08:57:17;;;;;;;3.90;3.80;;;15.60;99.90;;;;;;4954057;29;20442;-66
2023/11/05 08:59:43;;;;;;;3.60;3.50;;;15.60;99.90;;;;;;4957067;29;20226;-65
2023/11/05 09:02:10;;;;;;;3.30;3.20;;;15.50;99.90;;;;;;4956112;28;20188;-65
2023/11/05 09:04:36;;;;;;;3.10;3.00;;;15.50;99.90;;;;;;4956739;28;20416;-64
2023/11/05 09:07:02;;;;;;;3.60;3.40;;;15.50;99.90;;;;;;4951981;29;20529;-65
2023/11/05 09:09:28;;;;;;;2.97;2.87;;;15.60;99.90;;;;;;4953057;28;21003;-65
2023/11/05 09:11:54;;;;;;;3.00;2.90;;;15.70;99.90;;;;;;4952412;28;20792;-65
2023/11/05 09:14:23;;;;;;;3.30;3.20;;;15.80;99.90;;;;;;4952680;29;20444;-65
2023/11/05 09:16:51;;;;;;;3.70;3.50;;;15.80;99.90;;;;;;4955956;28;20256;-65
2023/11/05 09:19:17;;;;;;;3.40;3.30;;;15.90;99.90;;;;;;4941731;29;20764;-66
2023/11/05 09:21:45;;;;;;;2.90;2.80;;;15.90;99.90;;;;;;4953649;29;20432;-65
2023/11/05 09:24:11;;;;;;;3.00;2.90;;;16.00;99.90;;;;;;4942460;29;20228;-68
2023/11/05 09:26:37;;;;;;;2.50;2.50;;;16.00;99.90;;;;;;4954330;29;20511;-70
2023/11/05 09:29:04;;;;;;;2.73;2.73;;;16.10;99.90;;;;;;4954366;28;20499;-69
2023/11/05 09:31:30;;;;;;;3.10;3.00;;;16.10;99.90;;;;;;4953156;29;20416;-70
2023/11/05 09:33:56;;;;;;;3.47;3.27;;;16.00;99.90;;;;;;4953356;28;20436;-74
2023/11/05 09:36:22;;;;;;;3.43;3.33;;;16.00;99.90;;;;;;4954487;29;20432;-71
2023/11/05 09:38:48;;;;;;;3.17;3.07;;;15.80;99.90;;;;;;4953814;29;20198;-73
2023/11/05 09:41:18;;;;;;;3.37;3.27;;;15.60;99.90;;;;;;4950218;29;20652;-73
2023/11/05 09:43:48;;;;;;;3.90;3.80;;;15.50;99.90;;;;;;4954553;28;20189;-73
2023/11/05 09:46:14;;;;;;;73.70;66.50;;;15.30;99.90;;;;;;4948024;29;20547;-74
2023/11/05 09:48:43;;;;;;;67.20;46.50;;;15.10;99.90;;;;;;4951880;29;20441;-75
2023/11/05 09:51:13;;;;;;;4.23;4.03;;;15.00;99.90;;;;;;4953272;28;20541;-71
2023/11/05 09:53:39;;;;;;;2.93;2.83;;;14.90;99.90;;;;;;4948077;29;20514;-73
2023/11/05 09:56:06;;;;;;;3.50;3.40;;;14.80;99.90;;;;;;4953853;28;20461;-72
2023/11/05 09:58:32;;;;;;;3.77;3.67;;;14.80;99.90;;;;;;4952227;28;20183;-71
2023/11/05 10:00:57;;;;;;;3.50;3.40;;;14.70;99.90;;;;;;4953080;28;20520;-72
2023/11/05 10:03:25;;;;;;;3.50;3.30;;;14.60;99.90;;;;;;4953121;28;20182;-72
2023/11/05 10:05:55;;;;;;;3.10;3.00;;;14.60;99.90;;;;;;4955523;28;20267;-72
2023/11/05 10:08:23;;;;;;;2.90;2.83;;;14.60;99.90;;;;;;4951973;28;20429;-71
2023/11/05 10:10:52;;;;;;;3.70;3.50;;;14.50;99.90;;;;;;4949849;28;20497;-66
2023/11/05 10:13:18;;;;;;;3.33;3.23;;;14.40;99.90;;;;;;4949927;29;20472;-71
2023/11/05 10:15:47;;;;;;;3.87;3.77;;;14.40;99.90;;;;;;4954097;28;20450;-74
2023/11/05 10:18:17;;;;;;;4.17;3.90;;;14.40;99.90;;;;;;4954848;28;20427;-71
2023/11/05 10:20:52;;;;;;;3.93;3.73;;;14.40;99.90;;;;;;4954293;28;20440;-71
2023/11/05 10:23:19;;;;;;;3.40;3.30;;;14.40;99.90;;;;;;4950634;29;20507;-72
2023/11/05 10:25:50;;;;;;;4.47;3.67;;;14.30;99.90;;;;;;4953759;28;20430;-70
2023/11/05 10:28:18;;;;;;;3.60;3.40;;;14.40;99.90;;;;;;4949767;29;20423;-71
2023/11/05 10:30:46;;;;;;;3.93;3.73;;;14.50;99.90;;;;;;4954707;28;20452;-69
2023/11/05 10:33:15;;;;;;;4.00;3.80;;;14.40;99.90;;;;;;4951949;29;20429;-71
2023/11/05 10:35:41;;;;;;;4.00;3.80;;;14.40;99.90;;;;;;4951605;29;20430;-73
2023/11/05 10:38:10;;;;;;;3.60;3.50;;;14.30;99.90;;;;;;4954735;28;20477;-71
2023/11/05 10:40:37;;;;;;;3.43;3.33;;;14.20;99.90;;;;;;4951767;29;20914;-72
2023/11/05 10:43:04;;;;;;;4.63;4.23;;;14.10;99.90;;;;;;4953494;28;20435;-71
2023/11/05 10:45:31;;;;;;;5.53;5.17;;;14.10;99.90;;;;;;4953950;28;20506;-70
2023/11/05 10:47:57;;;;;;;4.60;4.30;;;14.00;99.90;;;;;;4953200;28;20826;-72
2023/11/05 10:50:30;;;;;;;5.00;4.60;;;14.00;99.90;;;;;;4953392;28;20465;-71
2023/11/05 10:52:58;;;;;;;3.77;3.50;;;14.00;99.90;;;;;;4950490;28;21751;-71
2023/11/05 10:55:36;;;;;;;3.93;3.73;;;13.90;99.90;;;;;;4953247;28;20416;-71
2023/11/05 10:58:03;;;;;;;4.10;3.90;;;13.90;99.90;;;;;;4951325;29;20844;-71
2023/11/05 11:00:44;;;;;;;6.23;5.30;;;13.80;99.90;;;;;;4953692;28;20841;-72
2023/11/05 11:03:12;;;;;;;6.10;5.60;;;13.80;99.90;;;;;;4950247;29;20435;-70
2023/11/05 11:05:44;;;;;;;4.83;4.53;;;13.80;99.90;;;;;;4950940;28;21034;-73
2023/11/05 11:08:11;;;;;;;4.87;4.47;;;13.80;99.90;;;;;;4952603;28;20835;-73
2023/11/05 11:10:39;;;;;;;3.97;3.67;;;13.70;99.90;;;;;;4951419;29;20560;-72
2023/11/05 11:13:12;;;;;;;3.57;3.47;;;13.70;99.90;;;;;;4948399;28;20577;-72
2023/11/05 11:15:41;;;;;;;3.83;3.63;;;13.70;99.90;;;;;;4951355;29;20685;-73
2023/11/05 11:18:20;;;;;;;3.67;3.37;;;13.80;99.90;;;;;;4949596;29;20449;-73
2023/11/05 11:20:56;;;;;;;3.57;3.37;;;13.90;99.90;;;;;;4946453;29;20465;-72
2023/11/05 11:23:22;;;;;;;3.90;3.70;;;14.00;99.90;;;;;;4949135;29;20416;-71
2023/11/05 11:26:17;;;;;;;6.73;6.23;;;14.00;99.90;;;;;;4953141;28;20428;-72
2023/11/05 11:28:42;;;;;;;4.70;4.40;;;13.90;99.90;;;;;;4948778;29;20437;-71
2023/11/05 11:31:08;;;;;;;148.40;101.77;;;14.00;99.90;;;;;;4950731;28;20458;-81
2023/11/05 11:33:34;;;;;;;9.13;8.23;;;13.90;99.90;;;;;;4952556;29;20181;-73
2023/11/05 11:36:01;;;;;;;4.70;4.20;;;14.00;99.90;;;;;;4948894;29;20433;-74
2023/11/05 11:38:27;;;;;;;4.40;4.10;;;14.00;99.90;;;;;;4947495;28;20194;-73
2023/11/05 11:40:57;;;;;;;4.17;3.87;;;14.00;99.90;;;;;;4949868;29;20416;-73
2023/11/05 11:43:24;;;;;;;3.70;3.50;;;14.10;99.90;;;;;;4943957;29;20182;-74
2023/11/05 11:45:52;;;;;;;3.77;3.57;;;14.20;99.90;;;;;;4949712;28;20438;-72
2023/11/05 11:48:19;;;;;;;3.67;3.57;;;14.20;99.90;;;;;;4948094;29;20421;-74
2023/11/05 11:50:55;;;;;;;4.30;4.00;;;14.20;99.90;;;;;;4949079;28;20466;-74
2023/11/05 11:53:32;;;;;;;5.20;3.60;;;14.20;99.90;;;;;;4945553;29;20445;-72
2023/11/05 11:56:02;;;;;;;4.10;3.60;;;14.20;99.90;;;;;;4949556;29;20444;-74
2023/11/05 11:58:29;;;;;;;3.67;3.57;;;14.20;99.90;;;;;;4953012;29;20436;-74
2023/11/05 12:00:57;;;;;;;4.50;4.30;;;14.10;99.90;;;;;;4953145;28;20432;-73
2023/11/05 12:03:24;;;;;;;4.00;3.50;;;14.10;99.90;;;;;;4950642;29;20849;-72
2023/11/05 12:05:52;;;;;;;4.20;3.27;;;14.10;99.90;;;;;;4952591;29;20789;-73
2023/11/05 12:08:38;;;;;;;3.70;3.50;;;14.10;99.90;;;;;;4948550;29;20448;-73
2023/11/05 12:11:16;;;;;;;42.00;29.67;;;14.00;99.90;;;;;;4950589;29;20494;-66
2023/11/05 12:13:42;;;;;;;9.33;8.40;;;13.90;99.90;;;;;;4948911;29;20966;-73
2023/11/05 12:16:09;;;;;;;5.57;5.17;;;13.90;99.90;;;;;;4950469;28;20491;-72
2023/11/05 12:18:40;;;;;;;3.70;3.60;;;13.90;99.90;;;;;;4955448;29;20785;-71
2023/11/05 12:21:10;;;;;;;3.83;3.63;;;13.80;99.90;;;;;;4953502;28;20431;-69
2023/11/05 12:23:37;;;;;;;4.47;4.10;;;13.70;99.90;;;;;;4953018;29;20431;-74
2023/11/05 12:26:05;;;;;;;4.00;3.70;;;13.70;99.90;;;;;;4955898;28;20416;-71
2023/11/05 12:28:32;;;;;;;3.67;3.57;;;13.80;99.90;;;;;;4956097;28;20439;-72
2023/11/05 12:31:03;;;;;;;4.10;3.90;;;13.70;99.90;;;;;;4953732;29;20550;-71
2023/11/05 12:33:33;;;;;;;3.67;3.47;;;13.70;99.90;;;;;;4955341;28;20443;-72
2023/11/05 12:36:00;;;;;;;4.40;4.10;;;13.70;99.90;;;;;;4953471;28;20769;-71
2023/11/05 12:38:25;;;;;;;3.60;3.50;;;13.60;99.90;;;;;;4956312;28;20769;-72
2023/11/05 12:40:52;;;;;;;2.70;2.60;;;13.50;99.90;;;;;;4952618;28;20437;-69
2023/11/05 12:43:19;;;;;;;2.50;2.40;;;13.30;99.90;;;;;;4953528;28;20507;-69